Time;durP1;ratioP1;P1;durP2;ratioP2;P2;SDS_P1;SDS_P2;PMS_P1;PMS_P2;Temp;Humidity;BMP_temperature;BMP_pressure;BME280_temperature;BME280_humidity;BME280_pressure;Samples;Min_cycle;Max_cycle;Signal;HPM_P1;HPM_P2
2022/06/25 00:02:25;;;;;;;22.45;20.20;;;18.30;99.90;;;;;;5065689;28;20048;-65
2022/06/25 00:07:35;;;;;;;21.88;19.98;;;18.10;99.90;;;;;;5065778;28;20049;-65
2022/06/25 00:10:00;;;;;;;23.67;21.48;;;18.10;99.90;;;;;;5065626;28;20557;-65
2022/06/25 00:12:32;;;;;;;22.38;20.10;;;18.10;99.90;;;;;;5065889;28;20072;-65
2022/06/25 00:14:59;;;;;;;22.45;20.35;;;18.20;99.90;;;;;;5065827;28;20048;-65
2022/06/25 00:17:25;;;;;;;21.65;19.48;;;18.60;99.90;;;;;;5065161;28;20470;-65
2022/06/25 00:19:51;;;;;;;23.23;21.15;;;18.30;99.90;;;;;;5065392;28;20106;-65
2022/06/25 00:22:16;;;;;;;23.08;20.77;;;18.40;99.90;;;;;;5065476;28;20048;-65
2022/06/25 00:24:42;;;;;;;22.65;20.55;;;18.10;99.90;;;;;;5064905;28;20037;-65
2022/06/25 00:27:08;;;;;;;22.45;20.17;;;18.10;99.90;;;;;;5065414;28;20044;-65
2022/06/25 00:29:33;;;;;;;23.35;20.88;;;18.10;99.90;;;;;;5065091;28;20519;-65
2022/06/25 00:31:59;;;;;;;24.10;21.90;;;18.10;99.90;;;;;;5065436;28;20583;-64
2022/06/25 00:34:26;;;;;;;25.33;22.95;;;18.10;99.90;;;;;;5065636;28;20206;-65
2022/06/25 00:36:52;;;;;;;24.95;22.52;;;18.10;99.90;;;;;;5063242;28;20052;-65
2022/06/25 00:39:17;;;;;;;23.98;21.77;;;18.10;99.90;;;;;;5065783;28;20241;-65
2022/06/25 00:41:43;;;;;;;21.38;19.38;;;18.10;99.90;;;;;;5065322;28;20083;-65
2022/06/25 00:44:09;;;;;;;22.73;20.45;;;18.10;99.90;;;;;;5064650;28;20091;-65
2022/06/25 00:46:35;;;;;;;24.83;22.48;;;18.10;99.90;;;;;;5065764;28;20040;-65
2022/06/25 00:49:01;;;;;;;22.90;20.80;;;18.00;99.90;;;;;;5065395;28;20041;-65
2022/06/25 00:51:31;;;;;;;24.60;21.95;;;18.00;99.90;;;;;;5064895;28;20044;-65
2022/06/25 00:54:02;;;;;;;25.13;22.73;;;18.00;99.90;;;;;;5065471;28;20044;-65
2022/06/25 00:56:32;;;;;;;25.08;22.73;;;17.90;99.90;;;;;;5065346;28;20105;-65
2022/06/25 00:59:02;;;;;;;25.60;22.88;;;17.90;99.90;;;;;;5064800;28;20403;-65
2022/06/25 01:01:29;;;;;;;26.10;23.50;;;17.90;99.90;;;;;;5065155;28;20411;-65
2022/06/25 01:03:55;;;;;;;24.38;21.88;;;17.90;99.90;;;;;;5064975;28;20330;-65
2022/06/25 01:06:20;;;;;;;25.60;22.95;;;17.90;99.90;;;;;;5066404;28;20048;-65
2022/06/25 01:08:46;;;;;;;24.95;22.35;;;17.90;99.90;;;;;;5068730;28;20128;-65
2022/06/25 01:11:12;;;;;;;25.65;23.00;;;17.90;99.90;;;;;;5068980;28;20185;-65
2022/06/25 01:13:37;;;;;;;24.77;22.35;;;17.90;99.90;;;;;;5067927;28;20463;-65
2022/06/25 01:16:03;;;;;;;25.92;23.23;;;17.90;99.90;;;;;;5068775;28;20032;-65
2022/06/25 01:18:29;;;;;;;27.30;24.60;;;17.90;99.90;;;;;;5068442;28;20040;-65
2022/06/25 01:20:55;;;;;;;24.70;22.20;;;17.90;99.90;;;;;;5068057;28;20592;-65
2022/06/25 01:23:21;;;;;;;24.08;21.63;;;17.80;99.90;;;;;;5068762;28;20045;-65
2022/06/25 01:25:46;;;;;;;22.92;20.58;;;17.90;99.90;;;;;;5067018;28;20092;-65
2022/06/25 01:28:12;;;;;;;27.05;23.23;;;17.90;99.90;;;;;;5068615;28;20501;-65
2022/06/25 01:30:38;;;;;;;24.52;22.02;;;18.10;99.90;;;;;;5068522;28;20041;-65
2022/06/25 01:33:08;;;;;;;22.98;20.65;;;17.80;99.90;;;;;;5067657;28;20423;-65
2022/06/25 01:35:34;;;;;;;26.23;23.42;;;17.80;99.90;;;;;;5068741;28;20045;-65
2022/06/25 01:38:03;;;;;;;26.95;24.20;;;18.00;99.90;;;;;;5068645;28;20086;-65
2022/06/25 01:40:31;;;;;;;23.38;21.10;;;17.70;99.90;;;;;;5067477;28;20044;-65
2022/06/25 01:43:00;;;;;;;25.58;23.10;;;17.70;99.90;;;;;;5068403;28;20048;-65
2022/06/25 01:45:27;;;;;;;24.75;22.17;;;17.70;99.90;;;;;;5068216;28;20080;-65
2022/06/25 01:47:53;;;;;;;26.27;23.77;;;17.70;99.90;;;;;;5067109;28;20491;-65
2022/06/25 01:50:19;;;;;;;26.42;23.73;;;17.70;99.90;;;;;;5066665;28;20048;-65
2022/06/25 01:52:48;;;;;;;27.02;24.23;;;17.70;99.90;;;;;;5067987;28;20055;-65
2022/06/25 01:55:15;;;;;;;25.90;23.48;;;18.00;99.90;;;;;;5067502;28;20036;-65
2022/06/25 01:57:40;;;;;;;25.88;23.27;;;17.60;99.90;;;;;;5067718;28;20109;-65
2022/06/25 02:00:13;;;;;;;25.33;22.90;;;17.70;99.90;;;;;;5067652;28;20040;-65
2022/06/25 02:02:39;;;;;;;25.85;23.27;;;17.60;99.90;;;;;;5066989;28;20549;-65
2022/06/25 02:05:06;;;;;;;24.38;20.65;;;17.60;99.90;;;;;;5067957;28;20365;-65
2022/06/25 02:07:32;;;;;;;25.80;23.20;;;17.60;99.90;;;;;;5068649;28;20446;-65
2022/06/25 02:09:58;;;;;;;24.85;22.17;;;17.60;99.90;;;;;;5066858;28;20028;-65
2022/06/25 02:12:23;;;;;;;22.75;20.45;;;18.30;99.90;;;;;;5066944;28;20090;-65
2022/06/25 02:14:49;;;;;;;24.13;21.75;;;17.60;99.90;;;;;;5067458;28;20044;-65
2022/06/25 02:17:15;;;;;;;23.45;21.25;;;17.50;99.90;;;;;;5066737;28;20075;-65
2022/06/25 02:19:41;;;;;;;22.15;20.20;;;17.50;99.90;;;;;;5066197;28;20526;-65
2022/06/25 02:22:07;;;;;;;23.05;20.80;;;17.50;99.90;;;;;;5066363;28;20087;-65
2022/06/25 02:24:33;;;;;;;23.48;21.15;;;17.90;99.90;;;;;;5067799;28;20079;-65
2022/06/25 02:26:58;;;;;;;24.00;21.65;;;17.40;99.90;;;;;;5067160;28;20044;-65
2022/06/25 02:29:24;;;;;;;22.25;20.15;;;17.40;99.90;;;;;;5066859;28;20646;-65
2022/06/25 02:31:50;;;;;;;23.02;20.83;;;17.40;99.90;;;;;;5067157;28;20407;-64
2022/06/25 02:34:15;;;;;;;22.80;20.55;;;17.40;99.90;;;;;;5067349;28;20101;-65
2022/06/25 02:36:41;;;;;;;22.92;20.90;;;17.40;99.90;;;;;;5065195;28;20458;-64
2022/06/25 02:39:07;;;;;;;22.58;20.30;;;17.30;99.90;;;;;;5067067;28;20037;-65
2022/06/25 02:41:32;;;;;;;23.27;20.88;;;17.50;99.90;;;;;;5067364;28;20040;-65
2022/06/25 02:43:58;;;;;;;21.23;18.80;;;17.30;99.90;;;;;;5066240;28;20040;-65
2022/06/25 02:46:24;;;;;;;22.50;20.23;;;17.40;99.90;;;;;;5067361;28;20071;-65
2022/06/25 02:48:50;;;;;;;23.13;20.77;;;17.20;99.90;;;;;;5067072;28;20475;-65
2022/06/25 02:51:15;;;;;;;21.38;19.23;;;17.20;99.90;;;;;;5066419;28;20471;-65
2022/06/25 02:53:41;;;;;;;22.48;19.77;;;17.20;99.90;;;;;;5066956;28;20045;-65
2022/06/25 02:58:55;;;;;;;20.95;18.75;;;17.10;99.90;;;;;;5066122;28;20044;-65
2022/06/25 03:01:22;;;;;;;22.20;19.38;;;17.20;99.90;;;;;;5066574;28;20376;-65
2022/06/25 03:03:48;;;;;;;19.83;18.00;;;17.10;99.90;;;;;;5066339;28;20495;-64
2022/06/25 03:06:14;;;;;;;19.85;18.05;;;17.10;99.90;;;;;;5066140;28;20042;-65
2022/06/25 03:08:40;;;;;;;21.88;19.58;;;17.00;99.90;;;;;;5066437;28;20052;-65
2022/06/25 03:11:05;;;;;;;23.27;18.55;;;17.00;99.90;;;;;;5066188;28;20464;-65
2022/06/25 03:13:34;;;;;;;20.40;18.50;;;17.00;99.90;;;;;;5066057;28;20095;-65
2022/06/25 03:16:00;;;;;;;20.67;18.50;;;17.00;99.90;;;;;;5065963;28;20801;-65
2022/06/25 03:18:26;;;;;;;15.88;14.27;;;16.90;99.90;;;;;;5064597;28;20056;-65
2022/06/25 03:20:52;;;;;;;19.42;17.42;;;17.00;99.90;;;;;;5066076;28;20059;-64
2022/06/25 03:23:17;;;;;;;19.00;17.08;;;17.00;99.90;;;;;;5066412;28;20040;-65
2022/06/25 03:25:43;;;;;;;18.88;16.75;;;16.90;99.90;;;;;;5064137;28;20484;-65
2022/06/25 03:28:09;;;;;;;18.80;16.65;;;17.30;99.90;;;;;;5065479;28;20051;-65
2022/06/25 03:30:35;;;;;;;18.00;15.65;;;16.90;99.90;;;;;;5066513;28;20055;-65
2022/06/25 03:33:01;;;;;;;19.52;17.33;;;16.90;99.90;;;;;;5064281;28;20491;-65
2022/06/25 03:35:26;;;;;;;15.65;14.15;;;16.80;99.90;;;;;;5066396;28;20399;-65
2022/06/25 03:37:52;;;;;;;16.85;15.15;;;16.90;99.90;;;;;;5065820;28;20071;-65
2022/06/25 03:40:18;;;;;;;17.15;15.43;;;16.80;99.90;;;;;;5065321;28;20510;-65
2022/06/25 03:42:43;;;;;;;16.73;15.23;;;16.80;99.90;;;;;;5066109;28;20117;-65
2022/06/25 03:45:09;;;;;;;17.33;15.68;;;16.80;99.90;;;;;;5065649;28;20131;-64
2022/06/25 03:47:35;;;;;;;17.13;15.43;;;16.80;99.90;;;;;;5065564;28;20040;-65
2022/06/25 03:50:01;;;;;;;15.73;14.13;;;16.80;99.90;;;;;;5065902;28;20040;-65
2022/06/25 03:52:27;;;;;;;15.52;14.07;;;16.80;99.90;;;;;;5066058;28;20040;-65
2022/06/25 03:54:53;;;;;;;14.48;13.05;;;16.80;99.90;;;;;;5064744;28;20134;-65
2022/06/25 03:57:19;;;;;;;16.30;14.32;;;16.80;99.90;;;;;;5065925;28;20053;-65
2022/06/25 03:59:45;;;;;;;15.80;14.25;;;16.80;99.90;;;;;;5065974;28;20080;-65
2022/06/25 04:02:10;;;;;;;18.02;14.80;;;16.70;99.90;;;;;;5065088;28;20095;-65
2022/06/25 04:04:36;;;;;;;15.00;13.63;;;16.70;99.90;;;;;;5064454;28;20542;-65
2022/06/25 04:07:02;;;;;;;15.32;14.00;;;16.70;99.90;;;;;;5065696;28;20041;-65
2022/06/25 04:09:28;;;;;;;14.98;13.35;;;16.70;99.90;;;;;;5065304;28;20044;-65
2022/06/25 04:11:53;;;;;;;15.50;14.10;;;16.70;99.90;;;;;;5065967;28;20132;-64
2022/06/25 04:14:19;;;;;;;16.55;14.95;;;16.80;99.90;;;;;;5065655;28;20076;-65
2022/06/25 04:16:44;;;;;;;16.48;14.55;;;16.70;99.90;;;;;;5064885;28;20052;-65
2022/06/25 04:19:10;;;;;;;14.60;13.20;;;16.80;99.90;;;;;;5065917;28;20454;-65
2022/06/25 04:21:36;;;;;;;14.05;12.75;;;16.70;99.90;;;;;;5065348;28;20093;-64
2022/06/25 04:24:01;;;;;;;13.00;11.82;;;16.80;99.90;;;;;;5065147;28;20123;-65
2022/06/25 04:26:27;;;;;;;14.75;13.50;;;16.80;99.90;;;;;;5066087;28;20055;-65
2022/06/25 04:29:04;;;;;;;15.02;13.63;;;16.80;99.90;;;;;;5064835;28;20040;-65
2022/06/25 04:31:37;;;;;;;13.93;12.50;;;16.80;99.90;;;;;;5065825;28;20139;-65
2022/06/25 04:34:04;;;;;;;13.85;12.32;;;16.80;99.90;;;;;;5065949;28;20040;-64
2022/06/25 04:36:30;;;;;;;13.90;12.57;;;16.90;99.90;;;;;;5064705;28;20159;-64
2022/06/25 04:38:56;;;;;;;12.15;11.05;;;16.80;99.90;;;;;;5065638;28;20135;-65
2022/06/25 04:41:21;;;;;;;12.30;11.18;;;16.80;99.90;;;;;;5068925;28;20040;-65
2022/06/25 04:43:47;;;;;;;16.05;11.65;;;16.90;99.90;;;;;;5068483;28;20040;-65
2022/06/25 04:46:13;;;;;;;12.10;10.95;;;16.80;99.90;;;;;;5069443;28;20503;-65
2022/06/25 04:48:39;;;;;;;12.68;11.48;;;16.90;99.90;;;;;;5067998;28;20036;-65
2022/06/25 04:51:05;;;;;;;12.18;11.07;;;16.90;99.90;;;;;;5067452;28;20405;-65
2022/06/25 04:53:31;;;;;;;12.43;10.68;;;17.00;99.90;;;;;;5069748;28;20403;-64
2022/06/25 04:55:57;;;;;;;12.43;10.25;;;17.00;99.90;;;;;;5069151;28;20086;-65
2022/06/25 04:58:23;;;;;;;9.80;8.80;;;17.00;99.90;;;;;;5068446;28;20442;-65
2022/06/25 05:00:49;;;;;;;11.68;10.63;;;17.00;99.90;;;;;;5068544;28;20233;-65
2022/06/25 05:03:15;;;;;;;11.02;9.93;;;17.10;99.90;;;;;;5069188;28;20483;-64
2022/06/25 05:05:40;;;;;;;11.52;10.38;;;17.10;99.90;;;;;;5068173;28;20502;-65
2022/06/25 05:08:06;;;;;;;10.75;9.63;;;17.20;99.90;;;;;;5067606;28;20182;-65
2022/06/25 05:10:31;;;;;;;11.18;9.48;;;17.10;99.90;;;;;;5068828;28;20415;-65
2022/06/25 05:13:12;;;;;;;10.20;9.27;;;17.30;99.90;;;;;;5068125;28;20388;-65
2022/06/25 05:15:39;;;;;;;9.27;8.38;;;17.30;99.90;;;;;;5068578;28;20037;-65
2022/06/25 05:18:06;;;;;;;10.32;9.40;;;17.40;99.90;;;;;;5066570;28;20275;-65
2022/06/25 05:20:32;;;;;;;11.00;9.98;;;17.40;99.90;;;;;;5069117;28;20044;-65
2022/06/25 05:22:57;;;;;;;9.85;8.77;;;17.40;99.90;;;;;;5068727;28;20407;-65
2022/06/25 05:25:23;;;;;;;9.18;7.75;;;17.50;99.90;;;;;;5068006;28;20032;-65
2022/06/25 05:27:49;;;;;;;9.20;8.38;;;17.60;99.90;;;;;;5068332;28;20040;-65
2022/06/25 05:30:14;;;;;;;10.52;8.13;;;17.50;99.90;;;;;;5068773;28;20457;-65
2022/06/25 05:32:40;;;;;;;9.40;8.52;;;17.90;99.90;;;;;;5067383;28;20543;-65
2022/06/25 05:35:06;;;;;;;8.82;8.02;;;17.80;99.90;;;;;;5068664;28;20040;-64
2022/06/25 05:37:31;;;;;;;8.65;7.68;;;17.80;99.90;;;;;;5068927;28;20054;-65
2022/06/25 05:39:57;;;;;;;9.57;8.75;;;17.80;99.90;;;;;;5066292;28;20373;-65
2022/06/25 05:42:22;;;;;;;9.73;8.80;;;17.90;99.90;;;;;;5068576;28;20127;-65
2022/06/25 05:44:48;;;;;;;9.88;8.82;;;18.00;99.90;;;;;;5068011;28;20040;-65
2022/06/25 05:47:14;;;;;;;9.35;8.45;;;18.10;99.90;;;;;;5067487;28;20472;-65
2022/06/25 05:49:40;;;;;;;9.75;8.70;;;18.10;99.90;;;;;;5068286;28;20032;-65
2022/06/25 05:52:06;;;;;;;14.63;8.77;;;18.20;99.90;;;;;;5067246;28;20083;-65
2022/06/25 05:54:32;;;;;;;9.48;8.50;;;18.20;99.90;;;;;;5067515;28;20420;-65
2022/06/25 05:56:57;;;;;;;9.55;8.65;;;18.20;99.90;;;;;;5066247;28;20064;-65
2022/06/25 05:59:23;;;;;;;9.27;8.38;;;18.30;99.90;;;;;;5067927;28;20044;-65
2022/06/25 06:01:48;;;;;;;9.02;7.90;;;18.30;99.90;;;;;;5066667;28;20123;-65
2022/06/25 06:04:14;;;;;;;8.25;7.45;;;18.30;99.90;;;;;;5067819;28;20209;-65
2022/06/25 06:06:40;;;;;;;8.63;7.88;;;18.40;99.90;;;;;;5067999;28;20056;-65
2022/06/25 06:09:05;;;;;;;8.52;7.45;;;18.60;99.90;;;;;;5066814;28;20120;-65
2022/06/25 06:11:31;;;;;;;8.98;8.18;;;18.40;99.90;;;;;;5067774;28;20140;-65
2022/06/25 06:13:57;;;;;;;9.43;8.43;;;18.50;99.90;;;;;;5067708;28;20261;-65
2022/06/25 06:16:22;;;;;;;9.02;7.65;;;18.60;99.90;;;;;;5067161;28;20119;-65
2022/06/25 06:18:48;;;;;;;8.63;7.82;;;18.60;99.90;;;;;;5066968;28;20239;-65
2022/06/25 06:21:14;;;;;;;12.85;8.55;;;18.70;99.90;;;;;;5067200;28;20131;-65
2022/06/25 06:23:39;;;;;;;8.45;7.72;;;18.70;99.90;;;;;;5066079;28;20129;-65
2022/06/25 06:26:05;;;;;;;10.18;8.40;;;18.80;99.90;;;;;;5067484;28;20543;-65
2022/06/25 06:28:30;;;;;;;9.27;7.82;;;18.90;99.90;;;;;;5066871;28;20056;-65
2022/06/25 06:30:56;;;;;;;8.48;7.28;;;18.90;99.90;;;;;;5067227;28;20047;-65
2022/06/25 06:33:22;;;;;;;7.72;6.97;;;19.00;99.90;;;;;;5067645;28;20036;-65
2022/06/25 06:35:47;;;;;;;8.10;7.28;;;19.10;99.90;;;;;;5066171;28;20487;-65
2022/06/25 06:38:13;;;;;;;8.00;7.10;;;19.10;99.90;;;;;;5067485;28;20044;-65
2022/06/25 06:40:38;;;;;;;7.32;6.72;;;19.10;99.90;;;;;;5067256;28;20040;-65
2022/06/25 06:43:04;;;;;;;10.35;6.85;;;19.20;99.90;;;;;;5066549;28;20051;-65
2022/06/25 06:45:31;;;;;;;8.50;7.30;;;19.20;99.90;;;;;;5067083;28;20041;-65
2022/06/25 06:47:56;;;;;;;6.82;6.13;;;19.20;99.90;;;;;;5067126;28;20455;-65
2022/06/25 06:50:22;;;;;;;7.68;6.95;;;19.30;99.90;;;;;;5064928;28;20049;-65
2022/06/25 06:52:48;;;;;;;7.47;6.72;;;19.30;99.90;;;;;;5065417;28;20098;-65
2022/06/25 06:55:14;;;;;;;8.20;6.65;;;19.50;99.90;;;;;;5066934;28;20041;-65
2022/06/25 06:57:39;;;;;;;7.00;5.68;;;19.50;99.90;;;;;;5065964;28;20403;-65
2022/06/25 07:00:06;;;;;;;9.00;6.97;;;19.60;99.90;;;;;;5066692;28;20533;-65
2022/06/25 07:02:32;;;;;;;7.47;6.15;;;19.70;99.90;;;;;;5066851;28;20415;-64
2022/06/25 07:04:58;;;;;;;6.80;5.35;;;19.80;99.90;;;;;;5065204;28;20052;-65
2022/06/25 07:07:24;;;;;;;5.45;4.97;;;19.80;99.90;;;;;;5065374;28;20048;-65
2022/06/25 07:09:49;;;;;;;6.05;5.20;;;19.90;99.90;;;;;;5066516;28;20088;-65
2022/06/25 07:12:16;;;;;;;11.13;5.03;;;20.00;99.90;;;;;;5065789;28;20063;-65
2022/06/25 07:14:41;;;;;;;5.35;4.85;;;20.00;99.90;;;;;;5066356;28;20079;-65
2022/06/25 07:17:07;;;;;;;6.18;4.88;;;20.00;99.90;;;;;;5066108;28;20474;-65
2022/06/25 07:19:33;;;;;;;6.18;4.97;;;20.10;99.90;;;;;;5065961;28;20047;-65
2022/06/25 07:21:58;;;;;;;5.22;4.72;;;20.20;99.90;;;;;;5066074;28;20131;-65
2022/06/25 07:24:24;;;;;;;6.22;4.53;;;20.40;99.90;;;;;;5066842;28;20044;-65
2022/06/25 07:26:50;;;;;;;6.72;4.72;;;20.30;99.90;;;;;;5065102;28;20049;-65
2022/06/25 07:29:16;;;;;;;4.82;4.28;;;20.40;99.90;;;;;;5066230;28;20051;-65
2022/06/25 07:31:42;;;;;;;6.93;4.32;;;20.50;99.90;;;;;;5065455;28;20301;-65
2022/06/25 07:34:07;;;;;;;7.63;4.80;;;20.60;99.90;;;;;;5065889;28;20487;-65
2022/06/25 07:36:33;;;;;;;4.55;4.15;;;20.50;99.90;;;;;;5066195;28;20067;-65
2022/06/25 07:39:00;;;;;;;6.25;3.83;;;20.60;99.90;;;;;;5065535;28;20047;-65
2022/06/25 07:41:26;;;;;;;5.95;4.13;;;20.60;99.90;;;;;;5066499;28;20143;-65
2022/06/25 07:43:52;;;;;;;7.82;4.63;;;20.70;99.90;;;;;;5065955;28;20047;-65
2022/06/25 07:46:18;;;;;;;5.40;4.10;;;20.80;99.90;;;;;;5065403;28;20115;-65
2022/06/25 07:48:44;;;;;;;5.80;3.72;;;20.90;99.90;;;;;;5066011;28;20445;-65
2022/06/25 07:53:54;;;;;;;7.07;4.32;;;21.00;99.90;;;;;;5065156;28;20083;-65
2022/06/25 07:56:20;;;;;;;3.80;3.20;;;21.00;99.90;;;;;;5066000;28;20095;-65
2022/06/25 07:58:46;;;;;;;7.30;3.88;;;21.10;99.90;;;;;;5065642;28;20100;-64
2022/06/25 08:01:11;;;;;;;3.75;2.97;;;21.20;99.90;;;;;;5063837;28;20055;-65
2022/06/25 08:03:37;;;;;;;6.43;3.47;;;21.20;99.90;;;;;;5065954;28;20488;-64
2022/06/25 08:06:04;;;;;;;9.45;3.50;;;21.30;99.90;;;;;;5065947;28;20099;-65
2022/06/25 08:08:29;;;;;;;2.65;2.30;;;21.30;99.90;;;;;;5065254;28;20055;-65
2022/06/25 08:10:55;;;;;;;3.78;2.80;;;21.40;99.90;;;;;;5064292;28;20394;-65
2022/06/25 08:13:21;;;;;;;7.10;3.08;;;21.60;99.90;;;;;;5066149;28;20044;-65
2022/06/25 08:15:47;;;;;;;6.43;3.20;;;21.70;99.90;;;;;;5064392;28;20097;-65
2022/06/25 08:18:13;;;;;;;2.72;2.42;;;21.80;99.90;;;;;;5065763;28;20123;-65
2022/06/25 08:20:38;;;;;;;4.57;3.10;;;21.90;99.90;;;;;;5065703;28;20141;-65
2022/06/25 08:23:05;;;;;;;3.10;2.80;;;22.00;99.90;;;;;;5065059;28;20051;-65
2022/06/25 08:25:30;;;;;;;2.70;2.50;;;22.00;99.90;;;;;;5065936;28;20051;-65
2022/06/25 08:27:56;;;;;;;2.80;2.45;;;21.90;99.90;;;;;;5064621;28;20403;-65
2022/06/25 08:30:23;;;;;;;2.60;1.98;;;21.90;99.90;;;;;;5065865;28;20051;-65
2022/06/25 08:32:49;;;;;;;3.53;2.63;;;21.90;99.90;;;;;;5065193;28;20044;-65
2022/06/25 08:35:16;;;;;;;5.30;2.40;;;21.90;99.90;;;;;;5064810;28;20044;-65
2022/06/25 08:37:46;;;;;;;3.25;1.90;;;21.90;99.90;;;;;;5065299;28;20072;-65
2022/06/25 08:40:13;;;;;;;3.65;2.35;;;21.80;99.90;;;;;;5065333;28;20123;-65
2022/06/25 08:42:39;;;;;;;3.88;2.45;;;21.80;99.90;;;;;;5064696;28;20048;-65
2022/06/25 08:45:05;;;;;;;4.75;2.60;;;21.70;99.90;;;;;;5065483;28;20044;-65
2022/06/25 08:47:31;;;;;;;4.47;2.60;;;21.60;99.90;;;;;;5065461;28;20051;-65
2022/06/25 08:49:58;;;;;;;4.82;2.30;;;21.50;99.90;;;;;;5064767;28;20275;-65
2022/06/25 08:52:27;;;;;;;3.30;2.72;;;21.50;99.90;;;;;;5065567;28;20097;-65
2022/06/25 08:54:55;;;;;;;2.63;2.42;;;21.40;99.90;;;;;;5064861;28;20161;-65
2022/06/25 08:57:20;;;;;;;5.82;2.42;;;21.40;99.90;;;;;;5064510;28;20063;-66
2022/06/25 08:59:47;;;;;;;3.67;2.85;;;21.50;99.90;;;;;;5063990;28;20044;-65
2022/06/25 09:02:12;;;;;;;3.72;2.80;;;21.60;99.90;;;;;;5063916;28;20044;-65
2022/06/25 09:04:38;;;;;;;6.55;2.60;;;21.80;99.90;;;;;;5064526;28;20040;-65
2022/06/25 09:07:17;;;;;;;4.95;2.53;;;21.90;99.90;;;;;;5065673;28;20044;-65
2022/06/25 09:09:50;;;;;;;2.92;2.60;;;22.10;99.90;;;;;;5065078;28;20522;-65
2022/06/25 09:12:17;;;;;;;5.32;2.75;;;22.20;99.90;;;;;;5064759;28;20108;-65
2022/06/25 09:14:43;;;;;;;3.85;1.80;;;22.10;99.90;;;;;;5064059;28;20052;-65
2022/06/25 09:17:14;;;;;;;5.50;2.25;;;22.30;99.90;;;;;;5062740;28;20052;-65
2022/06/25 09:19:47;;;;;;;3.97;1.83;;;22.40;99.90;;;;;;5065387;28;20049;-65
2022/06/25 09:22:18;;;;;;;4.07;1.80;;;22.40;99.90;;;;;;5065279;28;20318;-65
2022/06/25 09:24:55;;;;;;;2.67;1.73;;;22.40;99.90;;;;;;5064429;28;20134;-65
2022/06/25 09:27:33;;;;;;;4.30;1.90;;;22.30;99.90;;;;;;5067171;28;20055;-65
2022/06/25 09:30:08;;;;;;;2.30;2.00;;;22.20;99.90;;;;;;5068741;28;20040;-65
2022/06/25 09:32:47;;;;;;;5.13;2.45;;;22.10;99.90;;;;;;5068422;28;20037;-65
2022/06/25 09:35:14;;;;;;;5.75;2.35;;;22.10;99.90;;;;;;5068755;28;20400;-65
2022/06/25 09:37:40;;;;;;;2.40;2.10;;;22.00;99.90;;;;;;5067229;28;20079;-66
2022/06/25 09:40:06;;;;;;;3.97;2.20;;;22.10;99.90;;;;;;5067691;28;20056;-65
2022/06/25 09:42:33;;;;;;;2.72;2.20;;;22.30;99.90;;;;;;5068523;28;20044;-66
2022/06/25 09:45:05;;;;;;;3.40;1.95;;;22.50;99.90;;;;;;5066861;28;20110;-65
2022/06/25 09:47:34;;;;;;;7.45;2.22;;;22.70;99.90;;;;;;5067961;28;20052;-65
2022/06/25 09:50:05;;;;;;;3.97;1.95;;;22.90;99.90;;;;;;5067882;28;20805;-65
2022/06/25 09:52:31;;;;;;;3.38;1.70;;;23.10;99.90;;;;;;5067917;28;20059;-65
2022/06/25 09:54:57;;;;;;;4.93;1.98;;;23.20;99.90;;;;;;5068327;28;20033;-65
2022/06/25 09:57:24;;;;;;;2.78;1.58;;;23.10;99.90;;;;;;5067847;28;20728;-65
2022/06/25 09:59:52;;;;;;;2.42;1.75;;;23.00;99.90;;;;;;5067207;28;20106;-66
2022/06/25 10:02:19;;;;;;;2.83;1.52;;;22.90;99.90;;;;;;5066668;28;20056;-65
2022/06/25 10:04:46;;;;;;;1.30;1.20;;;22.90;99.90;;;;;;5067875;28;20079;-65
2022/06/25 10:07:15;;;;;;;4.00;1.23;;;22.80;99.90;;;;;;5065789;28;20057;-65
2022/06/25 10:09:42;;;;;;;2.05;1.27;;;22.90;99.90;;;;;;5068054;28;20048;-66
2022/06/25 10:12:09;;;;;;;1.40;1.30;;;23.10;99.90;;;;;;5067467;28;20044;-65
2022/06/25 10:14:36;;;;;;;1.67;1.30;;;23.20;99.90;;;;;;5067423;28;20068;-65
2022/06/25 10:17:03;;;;;;;4.20;1.38;;;23.40;99.90;;;;;;5067720;28;20048;-65
2022/06/25 10:19:32;;;;;;;1.45;1.20;;;23.50;99.90;;;;;;5067721;28;20059;-65
2022/06/25 10:21:59;;;;;;;2.95;1.30;;;23.40;99.90;;;;;;5066849;28;20457;-65
2022/06/25 10:24:25;;;;;;;1.17;1.08;;;23.30;99.90;;;;;;5067769;28;20041;-65
2022/06/25 10:26:51;;;;;;;3.72;1.35;;;23.20;99.90;;;;;;5067145;28;20094;-65
2022/06/25 10:29:27;;;;;;;2.17;1.33;;;23.30;99.90;;;;;;5066908;28;20305;-65
2022/06/25 10:32:15;;;;;;;3.35;1.25;;;23.40;99.90;;;;;;5067255;28;20124;-65
2022/06/25 10:35:01;;;;;;;3.85;1.27;;;23.60;99.90;;;;;;5067162;28;20548;-65
2022/06/25 10:37:27;;;;;;;1.60;0.95;;;23.50;99.90;;;;;;5067295;28;20261;-65
2022/06/25 10:39:54;;;;;;;2.15;1.42;;;23.30;99.90;;;;;;5067025;28;20043;-65
2022/06/25 10:45:04;;;;;;;2.78;0.90;;;23.60;99.90;;;;;;5067106;28;20337;-65
2022/06/25 10:47:41;;;;;;;2.03;1.15;;;23.60;99.90;;;;;;5067432;28;20083;-65
2022/06/25 10:50:22;;;;;;;2.33;0.98;;;23.40;99.90;;;;;;5064848;28;20076;-65
2022/06/25 10:55:56;;;;;;;2.85;1.30;;;23.10;99.90;;;;;;5066386;28;20053;-65
2022/06/25 10:58:24;;;;;;;5.30;1.73;;;23.20;99.90;;;;;;5067088;28;20040;-65
2022/06/25 11:01:01;;;;;;;1.00;0.90;;;23.40;99.90;;;;;;5066374;28;20044;-65
2022/06/25 11:03:32;;;;;;;5.25;1.40;;;23.60;99.90;;;;;;5066522;28;20060;-65
2022/06/25 11:06:00;;;;;;;2.95;1.20;;;23.80;99.90;;;;;;5064979;28;20094;-65
2022/06/25 11:08:33;;;;;;;1.17;0.93;;;24.00;99.90;;;;;;5065602;28;20188;-66
2022/06/25 11:10:59;;;;;;;1.13;0.77;;;24.10;99.90;;;;;;5065794;28;20036;-66
2022/06/25 11:13:25;;;;;;;1.90;1.00;;;24.00;99.90;;;;;;5066863;28;20491;-65
2022/06/25 11:15:51;;;;;;;2.55;0.68;;;23.80;99.90;;;;;;5066137;28;20090;-65
2022/06/25 11:18:16;;;;;;;3.75;0.75;;;23.60;99.90;;;;;;5065722;28;20048;-65
2022/06/25 11:20:42;;;;;;;2.05;1.00;;;23.60;99.90;;;;;;5065114;28;20562;-65
2022/06/25 11:23:13;;;;;;;3.13;1.00;;;24.00;99.90;;;;;;5066246;28;20048;-65
2022/06/25 11:28:53;;;;;;;;;;;23.80;99.90;;;;;;5066810;28;20048;-65
2022/06/25 11:31:21;;;;;;;2.95;1.00;;;23.70;99.90;;;;;;5065656;28;19924;-65
2022/06/25 11:33:48;;;;;;;1.58;1.10;;;23.50;99.90;;;;;;5065977;28;20052;-65
2022/06/25 11:36:14;;;;;;;1.48;0.98;;;23.50;99.90;;;;;;5066352;28;20056;-65
2022/06/25 11:38:41;;;;;;;1.70;0.77;;;23.40;99.90;;;;;;5065438;28;20071;-65
2022/06/25 11:41:17;;;;;;;1.85;1.00;;;23.30;99.90;;;;;;5065753;28;20044;-65
2022/06/25 11:43:43;;;;;;;1.75;1.02;;;23.20;99.90;;;;;;5066068;28;20048;-65
2022/06/25 11:46:09;;;;;;;2.90;1.15;;;23.20;99.90;;;;;;5065119;28;20055;-65
2022/06/25 11:48:34;;;;;;;4.53;1.02;;;23.20;99.90;;;;;;5066106;28;20063;-65
2022/06/25 11:51:03;;;;;;;3.40;1.08;;;23.10;99.90;;;;;;5065320;28;20050;-65
2022/06/25 11:53:29;;;;;;;1.20;1.00;;;23.00;99.90;;;;;;5065541;28;20051;-65
2022/06/25 11:56:05;;;;;;;3.85;1.08;;;23.00;99.90;;;;;;5064421;28;20036;-65
2022/06/25 11:58:33;;;;;;;2.10;0.95;;;22.90;99.90;;;;;;5065244;28;20056;-65
2022/06/25 12:01:00;;;;;;;1.92;1.02;;;22.90;99.90;;;;;;5065099;28;20488;-65
2022/06/25 12:03:27;;;;;;;1.27;1.02;;;22.70;99.90;;;;;;5066153;28;20514;-65
2022/06/25 12:05:58;;;;;;;2.63;1.10;;;22.70;99.90;;;;;;5064799;28;20376;-65
2022/06/25 12:08:25;;;;;;;2.50;1.50;;;22.70;99.90;;;;;;5066200;28;20036;-65
2022/06/25 12:10:52;;;;;;;2.63;1.23;;;22.50;99.90;;;;;;5065799;28;20554;-65
2022/06/25 12:13:18;;;;;;;1.80;1.15;;;22.50;99.90;;;;;;5063866;28;20124;-65
2022/06/25 12:15:44;;;;;;;1.00;0.90;;;22.40;99.90;;;;;;5065978;28;20099;-65
2022/06/25 12:18:10;;;;;;;3.30;1.52;;;22.30;99.90;;;;;;5064323;28;20048;-65
2022/06/25 12:20:54;;;;;;;3.15;1.77;;;22.30;99.90;;;;;;5064949;28;20402;-66
2022/06/25 12:23:20;;;;;;;5.05;1.77;;;22.20;99.90;;;;;;5065749;28;20053;-65
2022/06/25 12:25:48;;;;;;;2.63;2.25;;;22.10;99.90;;;;;;5065612;28;20052;-65
2022/06/25 12:28:13;;;;;;;2.78;2.10;;;22.00;99.90;;;;;;5064816;28;20044;-65
2022/06/25 12:30:39;;;;;;;3.38;2.58;;;22.00;99.90;;;;;;5065450;28;20408;-65
2022/06/25 12:33:09;;;;;;;6.72;2.88;;;21.90;99.90;;;;;;5065439;28;20525;-66
2022/06/25 12:35:40;;;;;;;2.95;2.65;;;21.80;99.90;;;;;;5065049;28;20567;-65
2022/06/25 12:38:07;;;;;;;3.17;2.53;;;21.90;99.90;;;;;;5065572;28;20340;-65
2022/06/25 12:40:37;;;;;;;5.63;2.63;;;21.70;99.90;;;;;;5064529;28;20041;-65
2022/06/25 12:43:06;;;;;;;4.70;2.58;;;21.80;99.90;;;;;;5064901;28;20052;-65
2022/06/25 12:45:32;;;;;;;4.35;2.20;;;21.70;99.90;;;;;;5065854;28;20076;-65
2022/06/25 12:47:59;;;;;;;2.47;2.28;;;21.70;99.90;;;;;;5065645;28;20044;-65
2022/06/25 12:50:28;;;;;;;3.03;1.90;;;21.70;99.90;;;;;;5065131;28;20519;-65
2022/06/25 12:52:55;;;;;;;3.15;2.00;;;21.70;99.90;;;;;;5065336;28;20075;-65
2022/06/25 12:55:25;;;;;;;8.93;2.63;;;21.80;99.90;;;;;;5064830;28;20040;-65